createdAt,value
2023-04-01T00:04:27.186Z,96045.53
2023-04-01T00:09:29.883Z,96031.22
2023-04-01T00:14:31.973Z,96034.16
2023-04-01T00:19:33.756Z,96033.16
2023-04-01T00:24:35.702Z,96030.00
2023-04-01T00:29:37.523Z,96034.59
2023-04-01T00:34:40.859Z,96027.19
2023-04-01T00:39:42.653Z,96032.78
2023-04-01T00:44:51.527Z,96031.38
2023-04-01T00:49:56.083Z,96032.56
2023-04-01T00:55:02.112Z,96036.94
2023-04-01T01:00:08.393Z,96033.56
2023-04-01T01:05:14.956Z,96040.13
2023-04-01T01:10:21.830Z,96043.53
2023-04-01T01:15:28.258Z,96032.38
2023-04-01T01:20:58.797Z,96035.19
2023-04-01T01:26:06.768Z,96042.34
2023-04-01T01:31:22.197Z,96030.41
2023-04-01T01:36:30.002Z,96030.41
2023-04-01T01:41:33.873Z,96034.97
2023-04-01T01:46:37.328Z,96033.38
2023-04-01T01:51:40.245Z,96035.78
2023-04-01T01:56:49.946Z,96026.81
2023-04-01T02:01:55.876Z,96033.97
2023-04-01T02:07:03.679Z,96033.41
2023-04-01T02:12:08.661Z,96029.41
2023-04-01T02:17:28.898Z,96036.16
2023-04-01T02:22:34.722Z,96028.41
2023-04-01T02:27:37.211Z,96015.25
2023-04-01T02:32:40.595Z,96022.63
2023-04-01T02:37:43.779Z,96021.81
2023-04-01T02:42:46.668Z,96020.59
2023-04-01T02:47:48.550Z,96021.19
2023-04-01T02:52:50.428Z,96025.16
2023-04-01T02:57:52.327Z,96029.53
2023-04-01T03:02:54.701Z,96037.31
2023-04-01T03:07:57.017Z,96032.91
2023-04-01T03:12:58.905Z,96038.88
2023-04-01T03:18:01.478Z,96045.50
2023-04-01T03:23:03.689Z,96044.50
2023-04-01T03:28:05.914Z,96047.72
2023-04-01T03:33:07.924Z,96047.53
2023-04-01T03:38:09.830Z,96043.38
2023-04-01T03:43:12.378Z,96048.13
2023-04-01T03:48:18.116Z,96050.13
2023-04-01T03:53:20.242Z,96061.66
2023-04-01T03:58:22.916Z,96059.88
2023-04-01T04:03:26.261Z,96060.28
2023-04-01T04:08:28.228Z,96060.06
2023-04-01T04:13:30.250Z,96063.03
2023-04-01T04:18:37.313Z,96066.47
2023-04-01T04:23:39.310Z,96073.00
2023-04-01T04:28:41.653Z,96075.38
2023-04-01T04:33:43.842Z,96071.63
2023-04-01T04:38:46.098Z,96071.81
2023-04-01T04:43:56.424Z,96074.81
2023-04-01T04:48:59.917Z,96078.38
2023-04-01T04:54:01.903Z,96079.19
2023-04-01T04:59:17.389Z,96085.16
2023-04-01T05:04:26.629Z,96082.19
2023-04-01T05:09:28.584Z,96086.56
2023-04-01T05:14:30.552Z,96085.75
2023-04-01T05:19:42.753Z,96082.00
2023-04-01T05:24:44.711Z,96091.13
2023-04-01T05:29:47.664Z,96093.31
2023-04-01T05:35:21.725Z,96094.50
2023-04-01T05:40:23.726Z,96100.28
2023-04-01T05:45:25.664Z,96102.28
2023-04-01T05:50:45.761Z,96108.22
2023-04-01T05:55:47.616Z,96100.44
2023-04-01T06:00:59.070Z,96107.81
2023-04-01T06:06:16.764Z,96117.56
2023-04-01T06:11:40.028Z,96112.19
2023-04-01T06:17:02.781Z,96125.72
2023-04-01T06:22:33.767Z,96113.94
2023-04-01T06:28:09.953Z,96124.06
2023-04-01T06:33:31.361Z,96127.97
2023-04-01T06:38:54.706Z,96124.81
2023-04-01T06:44:15.160Z,96134.06
2023-04-01T06:49:53.849Z,96130.03
2023-04-01T06:55:29.517Z,96136.41
2023-04-01T07:00:57.484Z,96137.78
2023-04-01T07:06:05.572Z,96143.53
2023-04-01T07:11:18.714Z,96162.09
2023-04-01T07:16:51.240Z,96154.66
2023-04-01T07:21:57.574Z,96151.28
2023-04-01T07:27:13.240Z,96155.78
2023-04-01T07:32:22.170Z,96160.25
2023-04-01T07:37:40.363Z,96156.50
2023-04-01T07:43:01.331Z,96161.81
2023-04-01T07:48:10.700Z,96156.63
2023-04-01T07:53:32.402Z,96155.81
2023-04-01T07:58:51.159Z,96159.53
2023-04-01T08:04:25.854Z,96164.59
2023-04-01T08:09:45.997Z,96169.56
2023-04-01T08:15:28.707Z,96165.72
2023-04-01T08:20:51.480Z,96185.06
2023-04-01T08:26:09.669Z,96173.19
2023-04-01T08:31:46.720Z,96171.56
2023-04-01T08:36:59.847Z,96170.78
2023-04-01T08:42:28.765Z,96178.38
2023-04-01T08:48:16.128Z,96180.16
2023-04-01T08:53:46.475Z,96178.88
2023-04-01T08:59:02.869Z,96177.22
2023-04-01T09:04:25.445Z,96188.13
2023-04-01T09:09:46.597Z,96186.09
2023-04-01T09:15:20.828Z,96176.22
2023-04-01T09:20:31.552Z,96187.41
2023-04-01T09:25:52.728Z,96186.25
2023-04-01T09:31:06.734Z,96199.63
2023-04-01T09:36:23.969Z,96197.41
2023-04-01T09:41:30.316Z,96197.03
2023-04-01T09:47:11.163Z,96206.09
2023-04-01T09:52:27.803Z,96197.81
2023-04-01T09:57:59.616Z,96210.19
2023-04-01T10:04:21.582Z,96201.63
2023-04-01T10:09:41.962Z,96202.31
2023-04-01T10:15:16.166Z,96210.16
2023-04-01T10:20:55.209Z,96216.47
2023-04-01T10:26:31.066Z,96214.38
2023-04-01T10:32:18.996Z,96214.16
2023-04-01T10:37:33.742Z,96218.72
2023-04-01T10:42:45.296Z,96211.72
2023-04-01T10:48:19.536Z,96218.66
2023-04-01T10:53:59.272Z,96213.84
2023-04-01T10:59:33.652Z,96212.19
2023-04-01T11:05:41.246Z,96221.25
2023-04-01T11:11:26.742Z,96213.00
2023-04-01T11:16:56.859Z,96218.66
2023-04-01T11:22:23.061Z,96214.09
2023-04-01T11:27:49.968Z,96221.31
2023-04-01T11:33:22.007Z,96215.69
2023-04-01T11:38:41.781Z,96220.22
2023-04-01T11:44:20.560Z,96224.50
2023-04-01T11:49:56.674Z,96225.69
2023-04-01T11:55:21.343Z,96233.78
2023-04-01T12:01:04.180Z,96238.09
2023-04-01T12:06:30.762Z,96235.69
2023-04-01T12:12:10.025Z,96239.47
2023-04-01T12:17:36.644Z,96240.50
2023-04-01T12:22:54.804Z,96239.13
2023-04-01T12:28:32.526Z,96237.59
2023-04-01T12:34:13.410Z,96243.44
2023-04-01T12:39:40.327Z,96245.19
2023-04-01T12:45:13.921Z,96251.16
2023-04-01T12:50:42.493Z,96256.84
2023-04-01T12:55:51.742Z,96260.41
2023-04-01T13:01:11.739Z,96261.31
2023-04-01T13:06:57.985Z,96258.88
2023-04-01T13:12:08.605Z,96254.56
2023-04-01T13:17:22.452Z,96261.66
2023-04-01T13:22:54.850Z,96265.63
2023-04-01T13:28:26.907Z,96272.81
2023-04-01T13:33:45.689Z,96271.53
2023-04-01T13:39:24.906Z,96278.78
2023-04-01T13:44:36.161Z,96276.66
2023-04-01T13:50:06.233Z,96275.03
2023-04-01T13:55:29.605Z,96276.41
2023-04-01T14:00:48.618Z,96278.31
2023-04-01T14:06:32.159Z,96284.75
2023-04-01T14:11:46.329Z,96286.22
2023-04-01T14:17:04.187Z,96291.88
2023-04-01T14:22:41.209Z,96287.75
2023-04-01T14:28:01.266Z,96281.31
2023-04-01T14:33:18.532Z,96286.06
2023-04-01T14:38:26.298Z,96288.47
2023-04-01T14:43:54.125Z,96296.50
2023-04-01T14:49:24.020Z,96296.38
2023-04-01T14:54:37.577Z,96298.09
2023-04-01T14:59:49.770Z,96303.38
2023-04-01T15:05:08.340Z,96297.41
2023-04-01T15:10:25.233Z,96302.69
2023-04-01T15:15:36.482Z,96307.66
2023-04-01T15:21:19.059Z,96304.09
2023-04-01T15:26:42.325Z,96303.69
2023-04-01T15:31:59.015Z,96298.25
2023-04-01T15:37:29.344Z,96311.13
2023-04-01T15:43:05.362Z,96309.59
2023-04-01T15:48:14.852Z,96318.19
2023-04-01T15:53:22.434Z,96318.19
2023-04-01T15:58:45.971Z,96323.47
2023-04-01T16:04:21.959Z,96322.66
2023-04-01T16:09:58.959Z,96327.25
2023-04-01T16:15:18.713Z,96333.94
2023-04-01T16:20:35.851Z,96336.97
2023-04-01T16:25:42.958Z,96343.81
2023-04-01T16:30:57.087Z,96342.78
2023-04-01T16:36:34.971Z,96349.22
2023-04-01T16:41:47.429Z,96356.88
2023-04-01T16:46:54.367Z,96363.72
2023-04-01T16:52:14.762Z,96366.94
2023-04-01T16:57:24.148Z,96371.22
2023-04-01T17:02:35.796Z,96385.69
2023-04-01T17:07:47.863Z,96394.13
2023-04-01T17:13:14.426Z,96401.13
2023-04-01T17:18:35.676Z,96403.56
2023-04-01T17:23:40.846Z,96411.00
2023-04-01T17:28:48.642Z,96396.59
2023-04-01T17:34:28.193Z,96412.78
2023-04-01T17:39:40.410Z,96420.00
2023-04-01T17:45:23.968Z,96428.19
2023-04-01T17:50:48.724Z,96430.59
2023-04-01T17:56:25.785Z,96438.78
2023-04-01T18:01:48.730Z,96446.97
2023-04-01T18:06:53.244Z,96450.16
2023-04-01T18:12:21.084Z,96451.75
2023-04-01T18:17:27.567Z,96460.31
2023-04-01T18:22:34.927Z,96460.25
2023-04-01T18:27:43.742Z,96471.44
2023-04-01T18:32:54.897Z,96474.03
2023-04-01T18:38:13.850Z,96483.38
2023-04-01T18:43:51.325Z,96488.19
2023-04-01T18:49:25.417Z,96496.38
2023-04-01T18:55:02.232Z,96506.16
2023-04-01T19:00:08.415Z,96503.69
2023-04-01T19:05:14.994Z,96516.38
2023-04-01T19:10:18.719Z,96511.94
2023-04-01T19:15:20.950Z,96518.25
2023-04-01T19:21:07.850Z,96523.41
2023-04-01T19:26:24.509Z,96527.25
2023-04-01T19:31:45.883Z,96532.34
2023-04-01T19:36:57.070Z,96546.69
2023-04-01T19:42:22.013Z,96554.84
2023-04-01T19:47:50.696Z,96553.28
2023-04-01T19:52:55.979Z,96560.94
2023-04-01T19:58:27.238Z,96564.38
2023-04-01T20:03:34.964Z,96574.75
2023-04-01T20:09:05.925Z,96579.50
2023-04-01T20:14:27.385Z,96583.91
2023-04-01T20:19:36.184Z,96589.06
2023-04-01T20:24:47.656Z,96596.25
2023-04-01T20:30:06.675Z,96606.56
2023-04-01T20:35:17.418Z,96606.66
2023-04-01T20:40:33.396Z,96612.38
2023-04-01T20:45:48.366Z,96619.91
2023-04-01T20:51:00.017Z,96626.13
2023-04-01T20:56:13.594Z,96625.75
2023-04-01T21:01:46.107Z,96628.78
2023-04-01T21:07:01.350Z,96631.94
2023-04-01T21:12:12.113Z,96636.25
2023-04-01T21:17:31.658Z,96642.22
2023-04-01T21:23:01.677Z,96644.41
2023-04-01T21:28:23.417Z,96655.38
2023-04-01T21:33:31.278Z,96655.72
2023-04-01T21:38:50.681Z,96658.72
2023-04-01T21:44:19.648Z,96670.03
2023-04-01T21:49:55.283Z,96679.78
2023-04-01T21:55:24.122Z,96681.63
2023-04-01T22:00:33.779Z,96691.63
2023-04-01T22:05:52.281Z,96687.84
2023-04-01T22:11:05.573Z,96691.50
2023-04-01T22:16:35.606Z,96697.09
2023-04-01T22:21:53.110Z,96692.28
2023-04-01T22:26:58.792Z,96703.22
2023-04-01T22:32:14.372Z,96704.63
2023-04-01T22:37:23.955Z,96712.81
2023-04-01T22:42:45.563Z,96714.72
2023-04-01T22:48:02.713Z,96722.25
2023-04-01T22:53:35.040Z,96732.81
2023-04-01T22:58:48.287Z,96736.53
2023-04-01T23:03:52.564Z,96742.13
2023-04-01T23:09:05.991Z,96756.41
2023-04-01T23:14:30.021Z,96756.16
2023-04-01T23:20:06.831Z,96762.34
2023-04-01T23:25:36.801Z,96774.34
2023-04-01T23:30:41.565Z,96770.31
2023-04-01T23:36:08.239Z,96783.19
2023-04-01T23:41:31.755Z,96794.94
2023-04-01T23:46:35.891Z,96801.44
2023-04-01T23:51:40.507Z,96807.34
2023-04-01T23:56:46.422Z,96809.84
